createdAt,value
2023-12-02T00:00:07.262Z,49.93
2023-12-02T00:02:35.296Z,50.13
2023-12-02T00:05:03.523Z,50.20
2023-12-02T00:07:33.025Z,50.33
2023-12-02T00:10:01.353Z,50.17
2023-12-02T00:12:29.393Z,51.93
2023-12-02T00:14:57.503Z,50.67
2023-12-02T00:17:25.572Z,50.13
2023-12-02T00:19:53.664Z,50.47
2023-12-02T00:22:21.848Z,52.17
2023-12-02T00:24:51.372Z,51.50
2023-12-02T00:27:20.352Z,51.53
2023-12-02T00:29:48.577Z,51.77
2023-12-02T00:32:27.997Z,51.80
2023-12-02T00:34:58.320Z,53.70
2023-12-02T00:37:26.844Z,51.63
2023-12-02T00:39:56.316Z,53.37
2023-12-02T00:42:24.434Z,51.47
2023-12-02T00:44:52.492Z,53.23
2023-12-02T00:47:20.694Z,54.00
2023-12-02T00:49:48.682Z,51.80
2023-12-02T00:52:16.961Z,53.73
2023-12-02T00:54:45.673Z,55.00
2023-12-02T00:57:15.333Z,54.57
2023-12-02T00:59:43.360Z,54.77
2023-12-02T01:02:12.160Z,53.37
2023-12-02T01:04:40.197Z,52.70
2023-12-02T01:07:08.312Z,52.97
2023-12-02T01:09:36.363Z,52.17
2023-12-02T01:12:04.675Z,52.70
2023-12-02T01:14:34.060Z,51.93
2023-12-02T01:17:02.265Z,53.63
2023-12-02T01:19:31.849Z,52.37
2023-12-02T01:22:02.402Z,53.67
2023-12-02T01:24:30.636Z,52.63
2023-12-02T01:26:58.818Z,52.47
2023-12-02T01:29:26.918Z,51.47
2023-12-02T01:31:56.640Z,52.00
2023-12-02T01:34:24.697Z,51.57
2023-12-02T01:36:55.022Z,50.83
2023-12-02T01:39:23.057Z,52.50
2023-12-02T01:41:51.242Z,52.17
2023-12-02T01:44:19.557Z,50.47
2023-12-02T01:46:47.542Z,52.60
2023-12-02T01:49:17.544Z,51.70
2023-12-02T01:51:45.935Z,49.63
2023-12-02T01:54:14.102Z,49.70
2023-12-02T01:56:42.453Z,49.37
2023-12-02T01:59:13.689Z,51.40
2023-12-02T02:01:41.870Z,50.47
2023-12-02T02:04:10.074Z,50.20
2023-12-02T02:06:40.587Z,49.57
2023-12-02T02:09:08.642Z,51.43
2023-12-02T02:11:36.779Z,50.30
2023-12-02T02:14:04.815Z,52.53
2023-12-02T02:16:33.008Z,51.70
2023-12-02T02:19:01.113Z,52.43
2023-12-02T02:21:30.729Z,52.57
2023-12-02T02:23:58.789Z,53.73
2023-12-02T02:26:26.971Z,55.40
2023-12-02T02:28:55.034Z,51.20
2023-12-02T02:31:23.133Z,53.33
2023-12-02T02:33:51.155Z,52.27
2023-12-02T02:36:19.699Z,53.77
2023-12-02T02:38:49.232Z,52.53
2023-12-02T02:41:17.633Z,52.53
2023-12-02T02:43:45.831Z,53.57
2023-12-02T02:46:15.676Z,53.73
2023-12-02T02:48:44.213Z,53.23
2023-12-02T02:51:12.597Z,52.70
2023-12-02T02:53:40.667Z,52.80
2023-12-02T02:56:11.463Z,52.17
2023-12-02T02:58:39.561Z,52.47
2023-12-02T03:01:08.006Z,51.70
2023-12-02T03:03:36.179Z,51.63
2023-12-02T03:06:05.122Z,50.17
2023-12-02T03:08:33.125Z,50.83
2023-12-02T03:11:01.416Z,52.20
2023-12-02T03:13:30.986Z,49.67
2023-12-02T03:15:59.532Z,48.83
2023-12-02T03:18:27.668Z,51.73
2023-12-02T03:20:55.907Z,50.80
2023-12-02T03:23:23.964Z,49.73
2023-12-02T03:25:52.272Z,50.10
2023-12-02T03:28:20.942Z,49.30
2023-12-02T03:30:50.675Z,49.87
2023-12-02T03:33:18.782Z,50.70
2023-12-02T03:35:46.954Z,50.40
2023-12-02T03:38:15.084Z,49.23
2023-12-02T03:40:43.178Z,50.43
2023-12-02T03:43:11.319Z,50.90
2023-12-02T03:45:39.638Z,50.50
2023-12-02T03:48:09.498Z,49.93
2023-12-02T03:50:37.822Z,50.97
2023-12-02T03:53:05.957Z,50.53
2023-12-02T03:55:34.101Z,51.17
2023-12-02T03:58:02.294Z,54.67
2023-12-02T04:00:30.417Z,51.47
2023-12-02T04:03:00.780Z,51.13
2023-12-02T04:05:30.489Z,52.77
2023-12-02T04:07:58.524Z,52.17
2023-12-02T04:10:26.744Z,52.00
2023-12-02T04:12:54.806Z,55.30
2023-12-02T04:15:23.191Z,52.20
2023-12-02T04:17:51.210Z,50.03
2023-12-02T04:20:19.599Z,50.47
2023-12-02T04:22:49.143Z,51.60
2023-12-02T04:25:17.407Z,51.13
2023-12-02T04:27:45.387Z,52.10
2023-12-02T04:30:13.152Z,51.83
2023-12-02T04:32:41.266Z,51.53
2023-12-02T04:35:10.431Z,51.50
2023-12-02T04:37:39.352Z,51.73
2023-12-02T04:40:12.827Z,52.57
2023-12-02T04:42:41.553Z,54.43
2023-12-02T04:45:10.471Z,53.20
2023-12-02T04:47:38.720Z,52.30
2023-12-02T04:50:07.533Z,52.00
2023-12-02T04:52:35.855Z,52.33
2023-12-02T04:55:03.932Z,52.13
2023-12-02T04:57:33.418Z,51.03
2023-12-02T05:00:01.762Z,51.37
2023-12-02T05:02:29.813Z,53.17
2023-12-02T05:04:57.781Z,52.80
2023-12-02T05:07:25.761Z,53.27
2023-12-02T05:09:53.735Z,51.70
2023-12-02T05:12:21.888Z,52.57
2023-12-02T05:14:51.222Z,50.50
2023-12-02T05:17:19.176Z,52.47
2023-12-02T05:19:48.336Z,51.73
2023-12-02T05:22:16.803Z,52.87
2023-12-02T05:24:44.780Z,51.67
2023-12-02T05:27:13.890Z,53.83
2023-12-02T05:29:41.898Z,56.23
2023-12-02T05:32:11.371Z,51.30
2023-12-02T05:34:39.472Z,51.80
2023-12-02T05:37:07.919Z,51.03
2023-12-02T05:39:37.027Z,51.23
2023-12-02T05:42:05.839Z,50.73
2023-12-02T05:44:33.898Z,51.80
2023-12-02T05:47:02.252Z,52.90
2023-12-02T05:49:32.375Z,54.17
2023-12-02T05:52:02.783Z,54.43
2023-12-02T05:54:30.790Z,53.50
2023-12-02T05:56:58.863Z,52.27
2023-12-02T05:59:26.839Z,52.33
2023-12-02T06:01:54.854Z,55.10
2023-12-02T06:04:22.945Z,53.00
2023-12-02T06:06:52.431Z,53.63
2023-12-02T06:09:20.481Z,52.43
2023-12-02T06:11:48.455Z,51.43
2023-12-02T06:14:16.448Z,52.63
2023-12-02T06:16:44.445Z,51.37
2023-12-02T06:19:13.359Z,53.33
2023-12-02T06:21:41.480Z,50.73
2023-12-02T06:24:11.108Z,51.83
2023-12-02T06:26:39.386Z,50.90
2023-12-02T06:29:08.063Z,52.93
2023-12-02T06:31:35.968Z,52.37
2023-12-02T06:34:05.342Z,51.70
2023-12-02T06:36:33.425Z,51.03
2023-12-02T06:39:01.987Z,51.83
2023-12-02T06:41:31.441Z,50.80
2023-12-02T06:43:59.520Z,51.87
2023-12-02T06:46:27.717Z,50.90
2023-12-02T06:48:55.819Z,51.30
2023-12-02T06:51:29.490Z,51.73
2023-12-02T06:53:57.891Z,49.83
2023-12-02T06:56:27.181Z,52.50
2023-12-02T06:58:56.758Z,53.13
2023-12-02T07:01:27.522Z,52.67
2023-12-02T07:03:55.816Z,53.77
2023-12-02T07:06:24.227Z,53.27
2023-12-02T07:08:53.056Z,54.70
2023-12-02T07:11:21.442Z,56.37
2023-12-02T07:13:49.620Z,54.77
2023-12-02T07:16:19.713Z,55.27
2023-12-02T07:18:47.965Z,54.33
2023-12-02T07:21:16.446Z,48.00
2023-12-02T07:23:45.950Z,49.27
2023-12-02T07:26:14.216Z,49.03
2023-12-02T07:28:43.424Z,51.90
2023-12-02T07:31:14.831Z,52.13
2023-12-02T07:33:44.695Z,54.63
2023-12-02T07:36:13.904Z,56.23
2023-12-02T07:38:42.704Z,54.90
2023-12-02T07:41:13.827Z,56.50
2023-12-02T07:43:41.859Z,52.17
2023-12-02T07:46:11.111Z,53.57
2023-12-02T07:48:39.146Z,53.17
2023-12-02T07:51:09.626Z,56.37
2023-12-02T07:53:37.664Z,54.43
2023-12-02T07:56:06.740Z,50.93
2023-12-02T07:58:35.394Z,50.67
2023-12-02T08:01:03.642Z,49.10
2023-12-02T08:03:31.785Z,51.93
2023-12-02T08:05:59.883Z,51.80
2023-12-02T08:08:29.307Z,57.07
2023-12-02T08:10:57.476Z,53.00
2023-12-02T08:13:25.728Z,57.00
2023-12-02T08:15:53.844Z,53.90
2023-12-02T08:18:22.592Z,54.20
2023-12-02T08:20:50.923Z,53.13
2023-12-02T08:23:18.988Z,53.27
2023-12-02T08:25:48.943Z,56.83
2023-12-02T08:28:17.047Z,53.90
2023-12-02T08:30:45.052Z,58.13
2023-12-02T08:33:13.049Z,59.27
2023-12-02T08:35:41.498Z,55.83
2023-12-02T08:38:09.518Z,54.90
2023-12-02T08:40:37.637Z,52.33
2023-12-02T08:43:07.078Z,53.23
2023-12-02T08:45:35.088Z,53.70
2023-12-02T08:48:03.290Z,51.53
2023-12-02T08:50:31.475Z,57.03
2023-12-02T08:52:59.979Z,54.83
2023-12-02T08:55:28.109Z,61.97
2023-12-02T08:57:56.442Z,59.03
2023-12-02T09:00:26.538Z,61.07
2023-12-02T09:02:54.782Z,52.30
2023-12-02T09:05:23.012Z,53.47
2023-12-02T09:07:51.112Z,56.80
2023-12-02T09:10:19.944Z,53.10
2023-12-02T09:12:47.952Z,56.00
2023-12-02T09:15:43.192Z,56.63
2023-12-02T09:18:12.911Z,54.50
2023-12-02T09:20:45.406Z,58.90
2023-12-02T09:23:14.037Z,56.57
2023-12-02T09:25:43.548Z,55.60
2023-12-02T09:28:23.074Z,58.87
2023-12-02T09:31:12.054Z,55.17
2023-12-02T09:33:41.406Z,59.53
2023-12-02T09:36:27.858Z,57.57
2023-12-02T09:38:55.900Z,54.40
2023-12-02T09:41:35.790Z,57.70
2023-12-02T09:44:13.545Z,57.23
2023-12-02T09:47:02.017Z,54.67
2023-12-02T09:50:03.895Z,59.50
2023-12-02T09:52:46.204Z,54.43
2023-12-02T09:55:18.877Z,56.80
2023-12-02T09:57:50.020Z,56.30
2023-12-02T10:00:27.917Z,57.03
2023-12-02T10:03:14.392Z,60.67
2023-12-02T10:05:54.230Z,58.70
2023-12-02T10:08:27.809Z,56.73
2023-12-02T10:11:04.615Z,56.40
2023-12-02T10:13:44.232Z,57.30
2023-12-02T10:16:16.345Z,55.17
2023-12-02T10:18:53.636Z,56.53
2023-12-02T10:21:23.088Z,56.00
2023-12-02T10:24:03.862Z,57.23
2023-12-02T10:26:37.871Z,52.73
2023-12-02T10:29:16.794Z,58.33
2023-12-02T10:31:55.652Z,58.47
2023-12-02T10:34:31.198Z,55.70
2023-12-02T10:37:01.905Z,59.27
2023-12-02T10:39:38.112Z,59.37
2023-12-02T10:42:06.773Z,53.37
2023-12-02T10:44:36.351Z,62.63
2023-12-02T10:47:07.288Z,56.00
2023-12-02T10:49:37.887Z,61.03
2023-12-02T10:54:42.268Z,58.87
2023-12-02T10:57:11.785Z,64.63
2023-12-02T10:59:45.349Z,59.63
2023-12-02T11:02:26.940Z,56.77
2023-12-02T11:05:08.873Z,59.50
2023-12-02T11:07:36.986Z,64.07
2023-12-02T11:10:06.665Z,63.07
2023-12-02T11:12:40.567Z,55.97
2023-12-02T11:15:11.117Z,57.80
2023-12-02T11:17:43.991Z,55.23
2023-12-02T11:20:21.495Z,55.43
2023-12-02T11:23:22.854Z,58.90
2023-12-02T11:26:21.600Z,52.10
2023-12-02T11:29:13.013Z,56.63
2023-12-02T11:32:07.437Z,55.63
2023-12-02T11:34:49.374Z,54.93
2023-12-02T11:37:31.545Z,52.53
2023-12-02T11:40:18.464Z,54.67
2023-12-02T11:42:58.548Z,64.30
2023-12-02T11:45:38.577Z,60.47
2023-12-02T11:48:21.437Z,58.97
2023-12-02T11:51:04.624Z,67.93
2023-12-02T11:53:53.180Z,72.73
2023-12-02T11:56:24.156Z,63.80
2023-12-02T11:58:55.468Z,65.90
2023-12-02T12:01:39.581Z,70.83
2023-12-02T12:04:37.064Z,84.87
2023-12-02T12:07:19.704Z,85.03
2023-12-02T12:10:00.724Z,77.67
2023-12-02T12:12:30.866Z,79.23
2023-12-02T12:15:02.321Z,75.03
2023-12-02T12:17:31.250Z,80.83
2023-12-02T12:20:00.733Z,100.93
2023-12-02T12:22:36.336Z,80.03
2023-12-02T12:25:06.789Z,104.33
2023-12-02T12:27:35.574Z,88.27
2023-12-02T12:30:03.881Z,90.67
2023-12-02T12:32:32.158Z,85.57
2023-12-02T12:35:00.717Z,77.30
2023-12-02T12:37:30.643Z,75.83
2023-12-02T12:39:58.745Z,73.57
2023-12-02T12:42:28.607Z,74.43
2023-12-02T12:45:00.699Z,76.17
2023-12-02T12:47:31.833Z,71.50
2023-12-02T12:50:05.138Z,72.20
2023-12-02T12:52:39.584Z,72.73
2023-12-02T12:55:12.011Z,76.33
2023-12-02T12:57:56.567Z,73.30
2023-12-02T13:00:28.821Z,68.97
2023-12-02T13:03:22.798Z,77.23
2023-12-02T13:05:59.761Z,74.60
2023-12-02T13:08:35.100Z,70.63
2023-12-02T13:11:18.564Z,68.93
2023-12-02T13:13:56.812Z,72.77
2023-12-02T13:16:25.543Z,73.37
2023-12-02T13:18:56.194Z,71.63
2023-12-02T13:21:26.142Z,70.73
2023-12-02T13:24:15.143Z,69.33
2023-12-02T13:26:43.343Z,73.50
2023-12-02T13:29:15.146Z,72.00
2023-12-02T13:31:43.505Z,67.57
2023-12-02T13:34:27.228Z,68.17
2023-12-02T13:36:56.614Z,68.70
2023-12-02T13:39:28.755Z,70.97
2023-12-02T13:41:58.000Z,63.53
2023-12-02T13:44:32.252Z,63.00
2023-12-02T13:47:06.325Z,61.20
2023-12-02T13:49:42.975Z,60.33
2023-12-02T13:52:33.130Z,60.93
2023-12-02T13:55:16.370Z,60.00
2023-12-02T13:58:09.251Z,64.70
2023-12-02T14:00:50.627Z,69.17
2023-12-02T14:03:38.928Z,61.03
2023-12-02T14:06:11.925Z,60.43
2023-12-02T14:08:41.402Z,59.43
2023-12-02T14:11:15.519Z,55.90
2023-12-02T14:13:49.749Z,60.20
2023-12-02T14:16:34.346Z,56.27
2023-12-02T14:19:53.015Z,56.10
2023-12-02T14:22:40.195Z,54.13
2023-12-02T14:25:40.210Z,53.77
2023-12-02T14:28:28.967Z,55.00
2023-12-02T14:31:12.827Z,54.63
2023-12-02T14:33:56.497Z,52.77
2023-12-02T14:36:43.642Z,62.03
2023-12-02T14:39:36.564Z,56.20
2023-12-02T14:42:13.619Z,60.73
2023-12-02T14:44:43.476Z,58.10
2023-12-02T14:47:13.724Z,61.23
2023-12-02T14:49:45.546Z,60.03
2023-12-02T14:52:13.788Z,56.87
2023-12-02T14:54:46.769Z,54.90
2023-12-02T14:57:17.149Z,56.57
2023-12-02T14:59:45.455Z,59.17
2023-12-02T15:02:36.600Z,56.23
2023-12-02T15:05:07.743Z,56.27
2023-12-02T15:07:43.002Z,54.43
2023-12-02T15:10:16.028Z,55.43
2023-12-02T15:12:50.146Z,53.20
2023-12-02T15:15:41.216Z,58.67
2023-12-02T15:18:15.924Z,52.60
2023-12-02T15:21:03.406Z,51.17
2023-12-02T15:23:39.033Z,57.27
2023-12-02T15:26:12.175Z,55.03
2023-12-02T15:28:51.589Z,56.30
2023-12-02T15:31:27.205Z,53.70
2023-12-02T15:33:57.738Z,57.77
2023-12-02T15:36:29.097Z,58.53
2023-12-02T15:38:59.605Z,58.47
2023-12-02T15:41:28.125Z,59.23
2023-12-02T15:44:00.258Z,54.93
2023-12-02T15:46:30.212Z,57.20
2023-12-02T15:49:02.241Z,54.60
2023-12-02T15:51:33.380Z,54.80
2023-12-02T15:54:26.007Z,53.00
2023-12-02T15:57:03.454Z,57.77
2023-12-02T15:59:32.905Z,56.20
2023-12-02T16:02:05.451Z,56.33
2023-12-02T16:04:34.339Z,54.40
2023-12-02T16:07:04.775Z,64.60
2023-12-02T16:09:33.173Z,68.70
2023-12-02T16:12:01.375Z,78.40
2023-12-02T16:14:29.562Z,60.20
2023-12-02T16:16:58.833Z,55.33
2023-12-02T16:19:27.860Z,75.43
2023-12-02T16:21:57.169Z,74.80
2023-12-02T16:24:28.534Z,79.30
2023-12-02T16:26:56.887Z,57.87
2023-12-02T16:29:25.073Z,51.00
2023-12-02T16:31:53.600Z,47.87
2023-12-02T16:34:22.126Z,46.43
2023-12-02T16:36:52.013Z,41.80
2023-12-02T16:39:20.154Z,41.10
2023-12-02T16:41:49.594Z,42.17
2023-12-02T16:44:17.946Z,42.23
2023-12-02T16:46:46.080Z,42.43
2023-12-02T16:49:19.487Z,41.67
2023-12-02T16:51:47.869Z,41.13
2023-12-02T16:54:16.672Z,41.63
2023-12-02T16:56:44.998Z,41.13
2023-12-02T16:59:48.784Z,43.27
2023-12-02T17:02:27.952Z,46.43
2023-12-02T17:04:56.171Z,41.87
2023-12-02T17:07:24.415Z,43.53
2023-12-02T17:09:52.553Z,40.17
2023-12-02T17:12:20.796Z,40.07
2023-12-02T17:14:50.526Z,39.97
2023-12-02T17:17:24.862Z,40.03
2023-12-02T17:19:53.015Z,40.50
2023-12-02T17:22:21.299Z,39.80
2023-12-02T17:24:49.394Z,37.67
2023-12-02T17:27:42.700Z,35.03
2023-12-02T17:30:13.589Z,33.30
2023-12-02T17:32:41.836Z,34.53
2023-12-02T17:35:10.450Z,33.83
2023-12-02T17:37:38.505Z,32.43
2023-12-02T17:40:07.703Z,33.10
2023-12-02T17:42:35.811Z,36.17
2023-12-02T17:45:04.419Z,37.43
2023-12-02T17:47:34.897Z,37.10
2023-12-02T17:50:03.215Z,36.07
2023-12-02T17:52:32.503Z,35.37
2023-12-02T17:55:00.721Z,35.63
2023-12-02T17:57:28.773Z,35.00
2023-12-02T17:59:56.866Z,34.27
2023-12-02T18:02:24.909Z,34.90
2023-12-02T18:04:54.544Z,35.13
2023-12-02T18:07:23.112Z,42.60
2023-12-02T18:09:51.271Z,37.87
2023-12-02T18:12:19.426Z,36.40
2023-12-02T18:14:47.500Z,35.53
2023-12-02T18:17:18.435Z,34.87
2023-12-02T18:19:46.509Z,36.00
2023-12-02T18:22:18.428Z,37.13
2023-12-02T18:24:46.596Z,35.97
2023-12-02T18:27:16.784Z,36.63
2023-12-02T18:29:44.976Z,36.40
2023-12-02T18:32:22.512Z,37.40
2023-12-02T18:34:50.744Z,37.63
2023-12-02T18:37:27.857Z,39.67
2023-12-02T18:39:56.046Z,39.00
2023-12-02T18:42:24.269Z,38.60
2023-12-02T18:44:52.669Z,36.17
2023-12-02T18:47:20.835Z,36.53
2023-12-02T18:49:49.738Z,35.13
2023-12-02T18:52:19.734Z,34.43
2023-12-02T18:54:47.852Z,33.80
2023-12-02T18:57:16.168Z,34.87
2023-12-02T18:59:44.413Z,34.43
2023-12-02T19:02:12.630Z,35.67
2023-12-02T19:04:40.727Z,35.83
2023-12-02T19:07:09.755Z,36.43
2023-12-02T19:09:39.316Z,36.87
2023-12-02T19:12:08.519Z,36.90
2023-12-02T19:14:36.674Z,36.47
2023-12-02T19:17:07.912Z,36.10
2023-12-02T19:19:36.178Z,35.80
2023-12-02T19:22:04.634Z,35.60
2023-12-02T19:24:32.921Z,34.80
2023-12-02T19:27:02.844Z,34.27
2023-12-02T19:29:31.169Z,34.20
2023-12-02T19:31:59.573Z,32.83
2023-12-02T19:34:31.458Z,33.53
2023-12-02T19:37:02.096Z,35.70
2023-12-02T19:39:30.823Z,33.67
2023-12-02T19:41:59.300Z,34.47
2023-12-02T19:44:29.684Z,34.30
2023-12-02T19:46:58.904Z,33.90
2023-12-02T19:49:27.256Z,34.97
2023-12-02T19:51:55.715Z,34.37
2023-12-02T19:54:24.893Z,33.10
2023-12-02T19:56:53.202Z,33.67
2023-12-02T20:00:03.563Z,33.60
2023-12-02T20:02:31.975Z,34.87
2023-12-02T20:05:01.040Z,34.83
2023-12-02T20:07:32.460Z,36.87
2023-12-02T20:10:00.793Z,38.00
2023-12-02T20:12:28.979Z,38.50
2023-12-02T20:14:58.853Z,39.77
2023-12-02T20:17:27.040Z,41.80
2023-12-02T20:19:55.436Z,45.50
2023-12-02T20:22:23.667Z,43.23
2023-12-02T20:24:51.884Z,43.40
2023-12-02T20:27:22.959Z,43.10
2023-12-02T20:29:51.276Z,42.60
2023-12-02T20:32:25.486Z,40.63
2023-12-02T20:34:53.893Z,49.83
2023-12-02T20:37:22.072Z,47.30
2023-12-02T20:39:50.275Z,52.83
2023-12-02T20:42:18.963Z,50.47
2023-12-02T20:44:47.626Z,50.63
2023-12-02T20:47:15.899Z,44.80
2023-12-02T20:49:45.617Z,48.77
2023-12-02T20:52:13.792Z,49.37
2023-12-02T20:54:42.004Z,45.43
2023-12-02T20:57:10.318Z,46.57
2023-12-02T20:59:38.508Z,42.97
2023-12-02T21:02:06.719Z,42.70
2023-12-02T21:04:35.925Z,40.87
2023-12-02T21:07:08.121Z,41.10
2023-12-02T21:09:37.155Z,40.80
2023-12-02T21:12:05.820Z,40.13
2023-12-02T21:14:34.038Z,38.87
2023-12-02T21:17:02.401Z,38.33
2023-12-02T21:19:30.934Z,37.47
2023-12-02T21:21:59.032Z,37.23
2023-12-02T21:24:28.672Z,38.47
2023-12-02T21:26:56.794Z,37.80
2023-12-02T21:29:25.095Z,38.87
2023-12-02T21:31:53.229Z,36.90
2023-12-02T21:34:22.504Z,37.20
2023-12-02T21:36:51.336Z,39.00
2023-12-02T21:39:22.617Z,38.23
2023-12-02T21:41:52.134Z,38.33
2023-12-02T21:44:20.283Z,38.70
2023-12-02T21:46:49.730Z,37.37
2023-12-02T21:49:20.907Z,39.50
2023-12-02T21:51:51.485Z,39.37
2023-12-02T21:54:21.222Z,40.23
2023-12-02T21:56:53.239Z,41.07
2023-12-02T21:59:23.049Z,39.77
2023-12-02T22:01:53.325Z,42.77
2023-12-02T22:04:23.683Z,44.40
2023-12-02T22:06:52.487Z,46.03
2023-12-02T22:09:41.929Z,45.67
2023-12-02T22:12:41.650Z,47.67
2023-12-02T22:15:21.453Z,43.47
2023-12-02T22:17:49.618Z,44.97
2023-12-02T22:20:22.204Z,42.97
2023-12-02T22:23:01.940Z,41.57
2023-12-02T22:25:31.750Z,42.60
2023-12-02T22:28:06.557Z,42.03
2023-12-02T22:30:43.638Z,41.40
2023-12-02T22:33:13.728Z,44.17
2023-12-02T22:35:43.945Z,42.87
2023-12-02T22:38:18.968Z,40.47
2023-12-02T22:40:48.312Z,40.83
2023-12-02T22:43:27.104Z,41.20
2023-12-02T22:45:55.489Z,41.67
2023-12-02T22:48:38.707Z,41.40
2023-12-02T22:51:08.760Z,40.50
2023-12-02T22:53:39.408Z,42.33
2023-12-02T22:56:09.264Z,40.87
2023-12-02T22:58:45.003Z,41.40
2023-12-02T23:01:29.651Z,41.37
2023-12-02T23:03:59.131Z,42.60
2023-12-02T23:06:30.855Z,42.13
2023-12-02T23:08:59.532Z,42.43
2023-12-02T23:11:49.334Z,42.80
2023-12-02T23:14:40.600Z,42.97
2023-12-02T23:17:12.821Z,43.27
2023-12-02T23:19:41.528Z,44.07
2023-12-02T23:22:10.577Z,42.97
2023-12-02T23:24:39.846Z,44.43
2023-12-02T23:27:10.341Z,42.17
2023-12-02T23:29:40.059Z,42.27
2023-12-02T23:32:08.384Z,43.50
2023-12-02T23:34:36.667Z,43.07
2023-12-02T23:37:05.322Z,43.77
2023-12-02T23:39:33.762Z,42.83
2023-12-02T23:42:04.532Z,40.00
2023-12-02T23:44:45.045Z,41.23
2023-12-02T23:47:17.632Z,41.00
2023-12-02T23:49:45.795Z,39.97
2023-12-02T23:52:14.776Z,40.33
2023-12-02T23:54:43.013Z,40.57
2023-12-02T23:57:11.198Z,40.77
2023-12-02T23:59:40.973Z,41.70
